createdAt,value
2022-09-16T00:00:54.408Z,99954.28
2022-09-16T00:03:22.402Z,99953.69
2022-09-16T00:05:52.163Z,99952.97
2022-09-16T00:08:20.807Z,99954.81
2022-09-16T00:10:48.086Z,99953.13
2022-09-16T00:13:15.704Z,99957.63
2022-09-16T00:15:47.613Z,99955.94
2022-09-16T00:18:14.839Z,99954.38
2022-09-16T00:20:49.772Z,99955.94
2022-09-16T00:23:17.224Z,99957.41
2022-09-16T00:25:44.456Z,99953.22
2022-09-16T00:28:11.657Z,99955.34
2022-09-16T00:30:38.834Z,99952.03
2022-09-16T00:33:06.077Z,99952.19
2022-09-16T00:35:33.544Z,99953.72
2022-09-16T00:38:00.744Z,99958.94
2022-09-16T00:40:27.997Z,99961.47
2022-09-16T00:42:55.251Z,99967.19
2022-09-16T00:45:25.218Z,99961.81
2022-09-16T00:47:58.127Z,99965.63
2022-09-16T00:50:51.406Z,99961.44
2022-09-16T00:53:23.740Z,99960.94
2022-09-16T00:55:52.621Z,99962.03
2022-09-16T00:58:32.244Z,99958.63
2022-09-16T01:00:59.674Z,99952.44
2022-09-16T01:03:28.985Z,99958.78
2022-09-16T01:05:56.150Z,99947.28
2022-09-16T01:08:23.368Z,99956.56
2022-09-16T01:10:50.604Z,99956.25
2022-09-16T01:13:18.086Z,99953.88
2022-09-16T01:16:04.672Z,99952.66
2022-09-16T01:19:03.327Z,99946.44
2022-09-16T01:21:44.477Z,99956.06
2022-09-16T01:24:19.723Z,99967.47
2022-09-16T01:27:06.848Z,99965.75
2022-09-16T01:29:52.943Z,99965.25
2022-09-16T01:32:34.997Z,99956.66
2022-09-16T01:35:04.804Z,99960.13
2022-09-16T01:37:50.497Z,99960.97
2022-09-16T01:40:28.496Z,99957.31
2022-09-16T01:43:08.203Z,99968.47
2022-09-16T01:45:44.891Z,99966.50
2022-09-16T01:48:23.259Z,99960.13
2022-09-16T01:51:14.629Z,99955.88
2022-09-16T01:53:55.003Z,99959.00
2022-09-16T01:56:50.532Z,99959.78
2022-09-16T01:59:41.472Z,99959.94
2022-09-16T02:02:16.745Z,99968.84
2022-09-16T02:04:48.755Z,99965.56
2022-09-16T02:07:17.761Z,99958.81
2022-09-16T02:09:49.627Z,99965.09
2022-09-16T02:12:24.591Z,99967.84
2022-09-16T02:14:57.261Z,99961.09
2022-09-16T02:17:26.433Z,99962.88
2022-09-16T02:20:01.563Z,99967.47
2022-09-16T02:22:39.059Z,99959.72
2022-09-16T02:25:08.434Z,99959.78
2022-09-16T02:27:38.030Z,99959.56
2022-09-16T02:30:11.252Z,99957.25
2022-09-16T02:32:41.968Z,99951.81
2022-09-16T02:35:10.801Z,99961.41
2022-09-16T02:37:41.095Z,99955.63
2022-09-16T02:40:13.598Z,99957.41
2022-09-16T02:42:41.070Z,99951.34
2022-09-16T02:45:08.923Z,99949.41
2022-09-16T02:47:52.757Z,99954.41
2022-09-16T02:50:35.329Z,99947.97
2022-09-16T02:53:36.909Z,99949.19
2022-09-16T02:56:28.949Z,99960.13
2022-09-16T02:58:56.330Z,99954.81
2022-09-16T03:01:24.380Z,99950.28
2022-09-16T03:03:54.360Z,99953.06
2022-09-16T03:06:22.441Z,99954.66
2022-09-16T03:08:50.250Z,99946.13
2022-09-16T03:11:38.640Z,99948.59
2022-09-16T03:14:22.147Z,99954.19
2022-09-16T03:17:08.290Z,99952.63
2022-09-16T03:20:12.050Z,99950.06
2022-09-16T03:22:48.448Z,99958.06
2022-09-16T03:25:46.093Z,99956.19
2022-09-16T03:28:24.630Z,99949.53
2022-09-16T03:31:07.802Z,99950.22
2022-09-16T03:33:53.261Z,99948.34
2022-09-16T03:36:23.894Z,99946.50
2022-09-16T03:38:53.747Z,99947.44
2022-09-16T03:41:21.212Z,99952.44
2022-09-16T03:44:03.061Z,99946.56
2022-09-16T03:46:31.426Z,99941.38
2022-09-16T03:48:59.123Z,99947.59
2022-09-16T03:51:27.179Z,99943.53
2022-09-16T03:53:55.175Z,99937.25
2022-09-16T03:56:24.536Z,99935.03
2022-09-16T03:58:51.816Z,99944.19
2022-09-16T04:01:21.565Z,99938.22
2022-09-16T04:03:48.979Z,99933.81
2022-09-16T04:06:16.456Z,99939.78
2022-09-16T04:08:45.058Z,99935.59
2022-09-16T04:11:12.357Z,99930.91
2022-09-16T04:13:39.564Z,99939.13
2022-09-16T04:16:07.009Z,99936.28
2022-09-16T04:18:35.002Z,99942.63
2022-09-16T04:21:03.214Z,99940.88
2022-09-16T04:23:31.356Z,99942.78
2022-09-16T04:26:00.179Z,99949.22
2022-09-16T04:28:28.402Z,99948.13
2022-09-16T04:30:59.188Z,99946.06
2022-09-16T04:33:29.803Z,99943.47
2022-09-16T04:36:12.787Z,99941.47
2022-09-16T04:38:41.355Z,99939.16
2022-09-16T04:41:10.115Z,99939.06
2022-09-16T04:43:37.521Z,99943.19
2022-09-16T04:46:08.643Z,99939.75
2022-09-16T04:48:39.168Z,99941.38
2022-09-16T04:51:12.265Z,99937.50
2022-09-16T04:53:40.742Z,99942.41
2022-09-16T04:56:16.073Z,99938.78
2022-09-16T04:58:51.700Z,99943.31
2022-09-16T05:01:21.563Z,99937.59
2022-09-16T05:03:51.323Z,99943.97
2022-09-16T05:06:24.538Z,99940.44
2022-09-16T05:08:55.119Z,99935.59
2022-09-16T05:11:27.951Z,99932.88
2022-09-16T05:14:03.205Z,99942.25
2022-09-16T05:16:30.949Z,99935.91
2022-09-16T05:18:59.812Z,99941.19
2022-09-16T05:21:29.215Z,99945.41
2022-09-16T05:23:59.717Z,99933.34
2022-09-16T05:26:29.359Z,99936.28
2022-09-16T05:28:57.157Z,99928.97
2022-09-16T05:31:32.261Z,99931.56
2022-09-16T05:34:04.040Z,99936.56
2022-09-16T05:36:33.712Z,99936.19
2022-09-16T05:39:22.134Z,99933.47
2022-09-16T05:41:52.631Z,99938.78
2022-09-16T05:44:19.898Z,99943.94
2022-09-16T05:46:47.288Z,99921.72
2022-09-16T05:49:20.875Z,99929.66
2022-09-16T05:51:49.503Z,99920.91
2022-09-16T05:54:20.606Z,99928.66
2022-09-16T05:56:49.396Z,99929.34
2022-09-16T05:59:17.795Z,99926.38
2022-09-16T06:01:45.697Z,99932.22
2022-09-16T06:04:14.775Z,99937.88
2022-09-16T06:06:44.595Z,99940.31
2022-09-16T06:09:20.530Z,99936.25
2022-09-16T06:11:54.477Z,99938.75
2022-09-16T06:14:24.623Z,99933.19
2022-09-16T06:16:52.163Z,99938.78
2022-09-16T06:19:20.653Z,99942.25
2022-09-16T06:21:48.662Z,99937.78
2022-09-16T06:24:17.307Z,99943.50
2022-09-16T06:26:45.596Z,99939.16
2022-09-16T06:29:13.409Z,99938.97
2022-09-16T06:31:41.171Z,99939.75
2022-09-16T06:34:11.333Z,99937.44
2022-09-16T06:36:44.731Z,99926.38
2022-09-16T06:39:15.163Z,99923.53
2022-09-16T06:41:44.911Z,99926.75
2022-09-16T06:44:14.394Z,99924.50
2022-09-16T06:46:42.683Z,99929.38
2022-09-16T06:49:11.347Z,99931.63
2022-09-16T06:51:39.119Z,99927.47
2022-09-16T06:54:08.842Z,99929.91
2022-09-16T06:56:41.306Z,99930.22
2022-09-16T06:59:09.668Z,99923.72
2022-09-16T07:01:37.602Z,99936.28
2022-09-16T07:04:13.681Z,99928.00
2022-09-16T07:09:29.135Z,99939.16
2022-09-16T07:11:57.004Z,99936.06
2022-09-16T07:14:30.929Z,99932.06
2022-09-16T07:16:58.971Z,99928.72
2022-09-16T07:19:27.155Z,99925.13
2022-09-16T07:21:54.739Z,99931.97
2022-09-16T07:24:24.784Z,99938.72
2022-09-16T07:26:52.585Z,99944.25
2022-09-16T07:29:24.180Z,99939.28
2022-09-16T07:31:51.680Z,99947.69
2022-09-16T07:34:20.242Z,99950.44
2022-09-16T07:36:54.311Z,99950.50
2022-09-16T07:39:21.722Z,99951.34
2022-09-16T07:41:49.473Z,99954.91
2022-09-16T07:44:18.536Z,99949.06
2022-09-16T07:46:46.625Z,99953.00
2022-09-16T07:49:14.934Z,99961.31
2022-09-16T07:51:42.522Z,99957.34
2022-09-16T07:54:15.309Z,99955.72
2022-09-16T07:56:43.739Z,99959.81
2022-09-16T07:59:18.403Z,99957.94
2022-09-16T08:01:47.777Z,99956.75
2022-09-16T08:04:15.337Z,99963.53
2022-09-16T08:06:42.656Z,99968.50
2022-09-16T08:09:27.340Z,99976.09
2022-09-16T08:11:57.630Z,99959.63
2022-09-16T08:14:28.301Z,99967.06
2022-09-16T08:16:55.599Z,99958.22
2022-09-16T08:19:24.466Z,99968.88
2022-09-16T08:21:52.303Z,99955.81
2022-09-16T08:24:19.753Z,99963.06
2022-09-16T08:26:47.046Z,99957.84
2022-09-16T08:29:14.564Z,99960.16
2022-09-16T08:31:42.062Z,99958.59
2022-09-16T08:34:09.315Z,99957.00
2022-09-16T08:36:36.572Z,99956.16
2022-09-16T08:39:04.430Z,99957.00
2022-09-16T08:41:49.170Z,99947.91
2022-09-16T08:44:31.979Z,99961.38
2022-09-16T08:47:29.404Z,99952.88
2022-09-16T08:49:59.082Z,99947.56
2022-09-16T08:52:33.811Z,99943.69
2022-09-16T08:55:13.459Z,99963.66
2022-09-16T08:57:45.320Z,99959.91
2022-09-16T09:00:17.532Z,99965.13
2022-09-16T09:02:48.638Z,99955.56
2022-09-16T09:05:23.858Z,99956.16
2022-09-16T09:08:19.568Z,99961.38
2022-09-16T09:10:57.458Z,99960.97
2022-09-16T09:13:38.613Z,99956.94
2022-09-16T09:16:32.169Z,99954.75
2022-09-16T09:19:33.437Z,99951.38
2022-09-16T09:22:27.455Z,99948.19
2022-09-16T09:25:21.988Z,99947.13
2022-09-16T09:27:55.576Z,99947.28
2022-09-16T09:30:25.379Z,99956.50
2022-09-16T09:33:02.555Z,99942.66
2022-09-16T09:35:51.923Z,99950.31
2022-09-16T09:38:46.870Z,99944.47
2022-09-16T09:41:18.946Z,99939.53
2022-09-16T09:43:56.648Z,99931.78
2022-09-16T09:46:49.370Z,99933.88
2022-09-16T09:49:35.077Z,99920.88
2022-09-16T09:52:08.129Z,99922.34
2022-09-16T09:54:36.833Z,99920.84
2022-09-16T09:57:25.447Z,99925.38
2022-09-16T10:00:13.325Z,99931.72
2022-09-16T10:02:44.932Z,99926.03
2022-09-16T10:05:25.045Z,99921.22
2022-09-16T10:07:55.280Z,99917.09
2022-09-16T10:10:24.432Z,99915.88
2022-09-16T10:12:51.684Z,99921.97
2022-09-16T10:15:26.557Z,99912.06
2022-09-16T10:17:54.779Z,99904.94
2022-09-16T10:20:29.383Z,99910.28
2022-09-16T10:23:03.738Z,99905.22
2022-09-16T10:25:33.224Z,99912.25
2022-09-16T10:28:05.578Z,99913.94
2022-09-16T10:30:52.788Z,99913.06
2022-09-16T10:33:30.492Z,99910.41
2022-09-16T10:36:11.663Z,99919.31
2022-09-16T10:38:43.862Z,99917.34
2022-09-16T10:41:24.052Z,99907.91
2022-09-16T10:43:59.889Z,99906.34
2022-09-16T10:46:27.558Z,99908.59
2022-09-16T10:49:16.873Z,99910.84
2022-09-16T10:51:44.689Z,99921.28
2022-09-16T10:54:24.933Z,99912.28
2022-09-16T10:56:52.802Z,99914.06
2022-09-16T10:59:20.050Z,99905.75
2022-09-16T11:02:16.537Z,99902.81
2022-09-16T11:05:02.879Z,99898.09
2022-09-16T11:07:48.787Z,99897.84
2022-09-16T11:10:25.458Z,99901.91
2022-09-16T11:13:23.011Z,99898.44
2022-09-16T11:16:11.724Z,99889.72
2022-09-16T11:18:58.491Z,99899.00
2022-09-16T11:22:05.273Z,99896.88
2022-09-16T11:24:39.352Z,99899.59
2022-09-16T11:27:31.727Z,99893.97
2022-09-16T11:30:14.509Z,99882.16
2022-09-16T11:36:04.221Z,99882.88
2022-09-16T11:38:59.524Z,99874.06
2022-09-16T11:41:42.423Z,99888.78
2022-09-16T11:44:38.284Z,99882.84
2022-09-16T11:47:29.933Z,99880.63
2022-09-16T11:50:18.525Z,99885.16
2022-09-16T11:53:27.071Z,99873.22
2022-09-16T11:56:14.136Z,99867.66
2022-09-16T11:59:15.511Z,99864.41
2022-09-16T12:01:50.451Z,99869.34
2022-09-16T12:04:26.990Z,99859.09
2022-09-16T12:07:25.955Z,99858.72
2022-09-16T12:10:01.865Z,99855.34
2022-09-16T12:12:43.200Z,99857.31
2022-09-16T12:15:28.750Z,99856.03
2022-09-16T12:18:02.158Z,99853.88
2022-09-16T12:20:36.956Z,99847.53
2022-09-16T12:23:16.176Z,99840.97
2022-09-16T12:26:17.056Z,99831.22
2022-09-16T12:28:59.668Z,99830.53
2022-09-16T12:31:58.296Z,99828.00
2022-09-16T12:34:28.635Z,99835.34
2022-09-16T12:37:03.810Z,99829.09
2022-09-16T12:39:30.960Z,99825.22
2022-09-16T12:42:31.958Z,99830.41
2022-09-16T12:45:11.527Z,99823.25
2022-09-16T12:47:55.556Z,99810.94
2022-09-16T12:50:22.739Z,99816.53
2022-09-16T12:53:11.672Z,99825.38
2022-09-16T12:55:54.297Z,99811.34
2022-09-16T12:58:46.899Z,99820.47
2022-09-16T13:01:22.496Z,99807.81
2022-09-16T13:03:58.443Z,99808.34
2022-09-16T13:06:32.281Z,99802.59
2022-09-16T13:09:24.978Z,99795.69
2022-09-16T13:14:54.664Z,99799.38
2022-09-16T13:17:30.710Z,99784.97
2022-09-16T13:20:12.618Z,99787.72
2022-09-16T13:23:08.712Z,99786.16
2022-09-16T13:25:59.516Z,99781.59
2022-09-16T13:28:41.392Z,99778.63
2022-09-16T13:31:15.391Z,99768.69
2022-09-16T13:33:44.012Z,99769.38
2022-09-16T13:36:16.896Z,99775.72
2022-09-16T13:38:58.584Z,99775.19
2022-09-16T13:41:40.520Z,99782.38
2022-09-16T13:44:40.548Z,99782.47
2022-09-16T13:47:14.544Z,99770.44
2022-09-16T13:50:11.146Z,99777.28
2022-09-16T13:52:39.559Z,99776.81
2022-09-16T13:55:19.141Z,99770.63
2022-09-16T13:57:58.490Z,99788.75
2022-09-16T14:00:35.371Z,99788.72
2022-09-16T14:03:17.975Z,99773.06
2022-09-16T14:06:20.336Z,99785.09
2022-09-16T14:09:02.053Z,99772.78
2022-09-16T14:12:06.387Z,99766.34
2022-09-16T14:14:50.351Z,99777.03
2022-09-16T14:17:24.117Z,99770.53
2022-09-16T14:19:57.311Z,99767.41
2022-09-16T14:22:27.332Z,99763.84
2022-09-16T14:25:05.875Z,99756.28
2022-09-16T14:27:40.534Z,99761.09
2022-09-16T14:30:18.063Z,99765.38
2022-09-16T14:32:46.361Z,99760.16
2022-09-16T14:35:23.301Z,99759.81
2022-09-16T14:38:02.214Z,99752.16
2022-09-16T14:40:30.616Z,99756.06
2022-09-16T14:43:06.292Z,99747.75
2022-09-16T14:45:35.082Z,99744.31
2022-09-16T14:48:05.785Z,99748.56
2022-09-16T14:50:38.144Z,99748.03
2022-09-16T14:53:19.163Z,99750.03
2022-09-16T14:55:49.509Z,99746.53
2022-09-16T14:58:17.027Z,99733.97
2022-09-16T15:01:10.347Z,99743.81
2022-09-16T15:04:02.624Z,99741.25
2022-09-16T15:06:34.154Z,99744.06
2022-09-16T15:09:17.741Z,99739.19
2022-09-16T15:12:03.948Z,99731.81
2022-09-16T15:14:31.407Z,99731.88
2022-09-16T15:17:01.193Z,99734.34
2022-09-16T15:19:34.411Z,99725.72
2022-09-16T15:22:02.556Z,99729.38
2022-09-16T15:24:34.010Z,99728.88
2022-09-16T15:27:02.061Z,99729.38
2022-09-16T15:29:32.195Z,99734.81
2022-09-16T15:32:20.918Z,99730.06
2022-09-16T15:34:49.654Z,99729.75
2022-09-16T15:37:35.815Z,99721.31
2022-09-16T15:40:36.114Z,99722.34
2022-09-16T15:43:15.223Z,99723.44
2022-09-16T15:45:43.054Z,99706.53
2022-09-16T15:48:16.935Z,99730.84
2022-09-16T15:50:54.459Z,99713.53
2022-09-16T15:53:31.196Z,99724.59
2022-09-16T15:56:17.093Z,99724.59
2022-09-16T15:59:06.290Z,99722.78
2022-09-16T16:01:53.662Z,99719.94
2022-09-16T16:04:30.900Z,99722.16
2022-09-16T16:07:06.047Z,99717.53
2022-09-16T16:09:38.083Z,99713.19
2022-09-16T16:12:10.288Z,99723.25
2022-09-16T16:14:39.055Z,99721.19
2022-09-16T16:17:21.135Z,99719.09
2022-09-16T16:19:50.868Z,99725.91
2022-09-16T16:22:32.523Z,99719.50
2022-09-16T16:25:01.440Z,99717.78
2022-09-16T16:27:31.025Z,99715.91
2022-09-16T16:30:00.527Z,99729.31
2022-09-16T16:32:28.335Z,99717.16
2022-09-16T16:34:58.104Z,99723.69
2022-09-16T16:37:45.470Z,99730.72
2022-09-16T16:40:15.466Z,99727.69
2022-09-16T16:42:44.035Z,99736.78
2022-09-16T16:45:15.087Z,99731.56
2022-09-16T16:47:44.015Z,99729.84
2022-09-16T16:50:12.545Z,99735.03
2022-09-16T16:52:40.221Z,99740.22
2022-09-16T16:55:07.871Z,99735.63
2022-09-16T16:57:35.161Z,99734.25
2022-09-16T17:00:03.111Z,99732.56
2022-09-16T17:02:30.609Z,99737.97
2022-09-16T17:05:00.023Z,99729.03
2022-09-16T17:07:28.093Z,99742.16
2022-09-16T17:09:57.487Z,99726.41
2022-09-16T17:12:27.161Z,99743.69
2022-09-16T17:14:57.873Z,99739.59
2022-09-16T17:17:29.107Z,99749.91
2022-09-16T17:19:58.737Z,99742.16
2022-09-16T17:22:25.932Z,99743.81
2022-09-16T17:24:53.324Z,99737.88
2022-09-16T17:27:20.744Z,99740.13
2022-09-16T17:29:48.949Z,99736.09
2022-09-16T17:32:16.847Z,99725.00
2022-09-16T17:37:38.649Z,99729.50
2022-09-16T17:40:08.521Z,99736.50
2022-09-16T17:42:36.189Z,99743.19
2022-09-16T17:45:06.254Z,99744.28
2022-09-16T17:47:36.539Z,99735.78
2022-09-16T17:50:06.724Z,99734.94
2022-09-16T17:52:34.851Z,99735.47
2022-09-16T17:55:02.301Z,99732.16
2022-09-16T17:57:33.367Z,99728.66
2022-09-16T18:00:01.021Z,99729.50
2022-09-16T18:02:28.454Z,99735.22
2022-09-16T18:04:55.948Z,99722.72
2022-09-16T18:07:24.638Z,99719.09
2022-09-16T18:09:52.014Z,99717.84
2022-09-16T18:12:19.482Z,99716.47
2022-09-16T18:14:46.951Z,99721.88
2022-09-16T18:17:14.376Z,99732.25
2022-09-16T18:19:42.103Z,99723.69
2022-09-16T18:22:09.611Z,99729.06
2022-09-16T18:24:36.794Z,99722.28
2022-09-16T18:27:04.024Z,99729.47
2022-09-16T18:29:31.573Z,99725.16
2022-09-16T18:31:59.651Z,99732.47
2022-09-16T18:34:31.206Z,99729.69
2022-09-16T18:37:00.608Z,99722.09
2022-09-16T18:39:27.900Z,99721.66
2022-09-16T18:41:57.663Z,99710.66
2022-09-16T18:44:25.132Z,99714.69
2022-09-16T18:46:53.285Z,99717.97
2022-09-16T18:49:29.077Z,99719.53
2022-09-16T18:51:56.638Z,99727.94
2022-09-16T18:54:28.462Z,99722.88
2022-09-16T18:56:57.146Z,99728.22
2022-09-16T18:59:28.681Z,99728.78
2022-09-16T19:01:59.228Z,99733.94
2022-09-16T19:04:29.454Z,99730.75
2022-09-16T19:07:00.294Z,99729.81
2022-09-16T19:09:27.837Z,99733.94
2022-09-16T19:11:56.175Z,99725.75
2022-09-16T19:14:27.272Z,99725.69
2022-09-16T19:16:54.966Z,99722.09
2022-09-16T19:19:22.809Z,99727.41
2022-09-16T19:21:50.094Z,99722.94
2022-09-16T19:24:23.392Z,99720.22
2022-09-16T19:26:52.744Z,99718.50
2022-09-16T19:29:20.571Z,99720.59
2022-09-16T19:31:49.329Z,99716.88
2022-09-16T19:34:17.146Z,99729.50
2022-09-16T19:36:44.515Z,99720.41
2022-09-16T19:39:13.279Z,99719.53
2022-09-16T19:41:41.859Z,99726.75
2022-09-16T19:44:12.903Z,99719.41
2022-09-16T19:46:42.494Z,99724.28
2022-09-16T19:49:15.134Z,99721.59
2022-09-16T19:51:42.976Z,99738.06
2022-09-16T19:54:10.401Z,99731.31
2022-09-16T19:56:37.759Z,99722.91
2022-09-16T19:59:04.983Z,99712.78
2022-09-16T20:01:34.236Z,99707.16
2022-09-16T20:04:02.333Z,99708.06
2022-09-16T20:06:34.606Z,99700.50
2022-09-16T20:09:03.557Z,99691.56
2022-09-16T20:11:32.973Z,99678.13
2022-09-16T20:14:03.077Z,99667.50
2022-09-16T20:16:35.800Z,99657.13
2022-09-16T20:19:08.494Z,99649.94
2022-09-16T20:21:36.241Z,99630.53
2022-09-16T20:24:05.848Z,99637.84
2022-09-16T20:26:35.680Z,99644.44
2022-09-16T20:29:03.920Z,99647.63
2022-09-16T20:31:33.815Z,99648.53
2022-09-16T20:34:01.365Z,99649.19
2022-09-16T20:36:32.519Z,99647.09
2022-09-16T20:39:00.622Z,99649.25
2022-09-16T20:41:32.481Z,99654.44
2022-09-16T20:44:00.256Z,99650.00
2022-09-16T20:46:32.942Z,99653.00
2022-09-16T20:49:01.741Z,99644.31
2022-09-16T20:51:31.636Z,99656.59
2022-09-16T20:54:08.457Z,99657.50
2022-09-16T20:56:39.118Z,99663.38
2022-09-16T20:59:10.970Z,99652.69
2022-09-16T21:01:40.000Z,99658.31
2022-09-16T21:04:11.172Z,99657.94
2022-09-16T21:06:39.884Z,99654.84
2022-09-16T21:09:10.194Z,99658.31
2022-09-16T21:11:40.847Z,99658.44
2022-09-16T21:14:08.609Z,99668.53
2022-09-16T21:16:38.274Z,99670.81
2022-09-16T21:19:11.017Z,99673.34
2022-09-16T21:21:41.420Z,99660.13
2022-09-16T21:24:09.912Z,99659.63
2022-09-16T21:26:39.948Z,99657.94
2022-09-16T21:29:11.213Z,99655.97
2022-09-16T21:31:40.932Z,99656.63
2022-09-16T21:34:15.264Z,99653.91
2022-09-16T21:36:44.478Z,99657.59
2022-09-16T21:39:14.856Z,99658.44
2022-09-16T21:41:43.095Z,99655.88
2022-09-16T21:44:12.438Z,99670.66
2022-09-16T21:46:42.858Z,99666.91
2022-09-16T21:49:18.119Z,99673.63
2022-09-16T21:51:46.372Z,99673.44
2022-09-16T21:54:19.106Z,99671.47
2022-09-16T21:56:47.454Z,99681.84
2022-09-16T21:59:15.078Z,99680.16
2022-09-16T22:01:42.366Z,99682.34
2022-09-16T22:04:15.126Z,99679.03
2022-09-16T22:06:42.809Z,99679.97
2022-09-16T22:09:10.970Z,99686.78
2022-09-16T22:11:40.725Z,99689.31
2022-09-16T22:14:08.341Z,99692.63
2022-09-16T22:16:37.454Z,99697.81
2022-09-16T22:19:11.247Z,99707.69
2022-09-16T22:21:41.345Z,99705.91
2022-09-16T22:24:09.617Z,99698.00
2022-09-16T22:26:37.566Z,99708.28
2022-09-16T22:29:06.408Z,99700.56
2022-09-16T22:31:34.661Z,99711.97
2022-09-16T22:34:02.325Z,99712.63
2022-09-16T22:36:31.354Z,99703.19
2022-09-16T22:39:20.592Z,99712.13
2022-09-16T22:41:47.703Z,99712.03
2022-09-16T22:44:15.698Z,99716.38
2022-09-16T22:46:47.515Z,99713.81
2022-09-16T22:49:15.601Z,99716.94
2022-09-16T22:51:43.115Z,99710.72
2022-09-16T22:54:12.515Z,99719.03
2022-09-16T22:56:39.723Z,99724.31
2022-09-16T22:59:08.247Z,99710.41
2022-09-16T23:01:38.265Z,99721.75
2022-09-16T23:04:06.995Z,99724.19
2022-09-16T23:06:35.038Z,99719.22
2022-09-16T23:09:02.471Z,99720.72
2022-09-16T23:11:32.416Z,99708.97
2022-09-16T23:14:01.086Z,99713.38
2022-09-16T23:16:31.081Z,99705.44
2022-09-16T23:19:00.089Z,99706.50
2022-09-16T23:21:27.740Z,99716.00
2022-09-16T23:23:57.813Z,99706.50
2022-09-16T23:26:28.079Z,99704.97
2022-09-16T23:28:56.623Z,99707.34
2022-09-16T23:31:29.303Z,99717.72
2022-09-16T23:33:57.117Z,99723.25
2022-09-16T23:36:26.209Z,99719.69
2022-09-16T23:38:54.483Z,99728.19
2022-09-16T23:41:24.658Z,99725.34
2022-09-16T23:43:52.004Z,99736.59
2022-09-16T23:46:23.157Z,99725.28
2022-09-16T23:48:53.733Z,99737.19
2022-09-16T23:51:26.017Z,99729.84
2022-09-16T23:53:56.414Z,99740.00
2022-09-16T23:56:23.888Z,99733.09
2022-09-16T23:58:52.068Z,99734.78
